createdAt,value
2023-03-03T00:00:33.191Z,9.443835
2023-03-03T00:01:33.147Z,9.443782
2023-03-03T00:02:34.103Z,9.443665
2023-03-03T00:03:34.158Z,9.443607
2023-03-03T00:04:34.042Z,9.443693
2023-03-03T00:05:33.094Z,9.443763
2023-03-03T00:06:33.098Z,9.443727
2023-03-03T00:07:33.118Z,9.443775
2023-03-03T00:08:33.087Z,9.443640
2023-03-03T00:09:33.106Z,9.443596
2023-03-03T00:10:33.076Z,9.443676
2023-03-03T00:11:33.075Z,9.443680
2023-03-03T00:12:33.060Z,9.443807
2023-03-03T00:13:33.058Z,9.443718
2023-03-03T00:14:33.107Z,9.443745
2023-03-03T00:15:33.064Z,9.443640
2023-03-03T00:16:33.037Z,9.443621
2023-03-03T00:17:33.059Z,9.443662
2023-03-03T00:18:33.017Z,9.443793
2023-03-03T00:19:33.094Z,9.443847
2023-03-03T00:20:33.024Z,9.443766
2023-03-03T00:21:33.047Z,9.443609
2023-03-03T00:22:32.995Z,9.443548
2023-03-03T00:23:33.021Z,9.443587
2023-03-03T00:24:32.981Z,9.443726
2023-03-03T00:25:33.037Z,9.443746
2023-03-03T00:26:33.037Z,9.443762
2023-03-03T00:27:33.021Z,9.443736
2023-03-03T00:28:33.006Z,9.443564
2023-03-03T00:29:32.981Z,9.443641
2023-03-03T00:30:32.969Z,9.443746
2023-03-03T00:31:32.996Z,9.443668
2023-03-03T00:32:32.939Z,9.443719
2023-03-03T00:33:33.012Z,9.443671
2023-03-03T00:34:32.930Z,9.443788
2023-03-03T00:35:32.957Z,9.443702
2023-03-03T00:36:32.953Z,9.443564
2023-03-03T00:37:32.937Z,9.443627
2023-03-03T00:38:33.927Z,9.443841
2023-03-03T00:39:32.903Z,9.443734
2023-03-03T00:40:32.947Z,9.443787
2023-03-03T00:41:32.884Z,9.443843
2023-03-03T00:42:32.924Z,9.443783
2023-03-03T00:43:32.920Z,9.443533
2023-03-03T00:44:32.988Z,9.443528
2023-03-03T00:45:32.879Z,9.443657
2023-03-03T00:46:32.926Z,9.443517
2023-03-03T00:47:32.872Z,9.443552
2023-03-03T00:48:32.891Z,9.443480
2023-03-03T00:49:32.818Z,9.443430
2023-03-03T00:50:32.841Z,9.443423
2023-03-03T00:51:33.422Z,9.443522
2023-03-03T00:52:32.880Z,9.443475
2023-03-03T00:53:32.841Z,9.443521
2023-03-03T00:54:32.790Z,9.443581
2023-03-03T00:55:32.796Z,9.443252
2023-03-03T00:56:32.800Z,9.443201
2023-03-03T00:57:32.915Z,9.443348
2023-03-03T00:58:32.786Z,9.443414
2023-03-03T00:59:32.765Z,9.443324
2023-03-03T01:00:34.201Z,9.443371
2023-03-03T01:01:33.837Z,9.443503
2023-03-03T01:02:32.830Z,9.443460
2023-03-03T01:03:32.771Z,9.443390
2023-03-03T01:04:32.756Z,9.443356
2023-03-03T01:05:32.759Z,9.443302
2023-03-03T01:06:32.784Z,9.443394
2023-03-03T01:07:32.780Z,9.443763
2023-03-03T01:08:32.762Z,9.443803
2023-03-03T01:09:32.741Z,9.443769
2023-03-03T01:10:32.715Z,9.443771
2023-03-03T01:11:32.733Z,9.443747
2023-03-03T01:12:32.699Z,9.443745
2023-03-03T01:13:32.765Z,9.443725
2023-03-03T01:14:32.711Z,9.443777
2023-03-03T01:15:32.683Z,9.443730
2023-03-03T01:16:32.677Z,9.443653
2023-03-03T01:17:32.744Z,9.443667
2023-03-03T01:18:32.646Z,9.443657
2023-03-03T01:19:32.668Z,9.443651
2023-03-03T01:20:32.663Z,9.443670
2023-03-03T01:21:32.720Z,9.443728
2023-03-03T01:22:32.671Z,9.443746
2023-03-03T01:23:32.697Z,9.443697
2023-03-03T01:24:33.244Z,9.443696
2023-03-03T01:25:32.678Z,9.443704
2023-03-03T01:26:32.631Z,9.443707
2023-03-03T01:27:32.627Z,9.443694
2023-03-03T01:28:32.619Z,9.443720
2023-03-03T01:29:32.729Z,9.443745
2023-03-03T01:30:32.629Z,9.443793
2023-03-03T01:31:32.740Z,9.443718
2023-03-03T01:32:33.118Z,9.443707
2023-03-03T01:33:33.536Z,9.443678
2023-03-03T01:34:33.538Z,9.443616
2023-03-03T01:35:33.564Z,9.443607
2023-03-03T01:36:33.531Z,9.443673
2023-03-03T01:37:33.541Z,9.443663
2023-03-03T01:38:32.552Z,9.443671
2023-03-03T01:39:32.539Z,9.443672
2023-03-03T01:40:32.545Z,9.443733
2023-03-03T01:41:32.523Z,9.443644
2023-03-03T01:42:32.526Z,9.443684
2023-03-03T01:43:32.523Z,9.443715
2023-03-03T01:44:32.502Z,9.443790
2023-03-03T01:45:32.539Z,9.443689
2023-03-03T01:46:32.898Z,9.443686
2023-03-03T01:47:32.718Z,9.443700
2023-03-03T01:48:32.590Z,9.443667
2023-03-03T01:49:32.713Z,9.443654
2023-03-03T01:50:32.551Z,9.443617
2023-03-03T01:51:32.457Z,9.443660
2023-03-03T01:52:32.471Z,9.443638
2023-03-03T01:53:32.456Z,9.443559
2023-03-03T01:54:32.419Z,9.443553
2023-03-03T01:55:32.445Z,9.443550
2023-03-03T01:56:32.452Z,9.443573
2023-03-03T01:57:32.489Z,9.443669
2023-03-03T01:58:32.451Z,9.443693
2023-03-03T01:59:33.412Z,9.443660
2023-03-03T02:00:32.431Z,9.443633
2023-03-03T02:01:32.523Z,9.443633
2023-03-03T02:02:32.433Z,9.443596
2023-03-03T02:03:32.403Z,9.443520
2023-03-03T02:04:32.384Z,9.443473
2023-03-03T02:05:32.406Z,9.443544
2023-03-03T02:06:32.378Z,9.443678
2023-03-03T02:07:32.363Z,9.443717
2023-03-03T02:08:32.392Z,9.443667
2023-03-03T02:09:32.379Z,9.443666
2023-03-03T02:10:32.372Z,9.443705
2023-03-03T02:11:32.332Z,9.443691
2023-03-03T02:12:32.362Z,9.443799
2023-03-03T02:13:32.323Z,9.443754
2023-03-03T02:14:32.378Z,9.443756
2023-03-03T02:15:32.364Z,9.443753
2023-03-03T02:16:32.373Z,9.443678
2023-03-03T02:17:32.295Z,9.443714
2023-03-03T02:18:32.318Z,9.443688
2023-03-03T02:19:32.306Z,9.443736
2023-03-03T02:20:32.341Z,9.443753
2023-03-03T02:21:32.287Z,9.443707
2023-03-03T02:22:32.266Z,9.443705
2023-03-03T02:23:32.288Z,9.443716
2023-03-03T02:24:32.271Z,9.443716
2023-03-03T02:25:32.259Z,9.443668
2023-03-03T02:26:32.243Z,9.443708
2023-03-03T02:27:32.282Z,9.443737
2023-03-03T02:28:34.028Z,9.443733
2023-03-03T02:29:32.281Z,9.443792
2023-03-03T02:30:32.287Z,9.443765
2023-03-03T02:31:32.339Z,9.443778
2023-03-03T02:32:32.313Z,9.443768
2023-03-03T02:33:32.274Z,9.443758
2023-03-03T02:34:32.198Z,9.443769
2023-03-03T02:35:32.233Z,9.443829
2023-03-03T02:36:32.229Z,9.443809
2023-03-03T02:37:32.215Z,9.443787
2023-03-03T02:38:32.184Z,9.443778
2023-03-03T02:39:32.228Z,9.443723
2023-03-03T02:40:32.204Z,9.443732
2023-03-03T02:41:33.036Z,9.443766
2023-03-03T02:42:33.060Z,9.443706
2023-03-03T02:43:32.159Z,9.443687
2023-03-03T02:44:32.191Z,9.443690
2023-03-03T02:45:33.105Z,9.443657
2023-03-03T02:46:32.219Z,9.443576
2023-03-03T02:47:33.057Z,9.443617
2023-03-03T02:48:33.029Z,9.443719
2023-03-03T02:49:32.256Z,9.443662
2023-03-03T02:50:32.097Z,9.443681
2023-03-03T02:51:32.113Z,9.443563
2023-03-03T02:52:33.056Z,9.443401
2023-03-03T02:53:32.085Z,9.443466
2023-03-03T02:54:32.141Z,9.443475
2023-03-03T02:55:32.072Z,9.443467
2023-03-03T02:56:32.121Z,9.443392
2023-03-03T02:57:32.037Z,9.443337
2023-03-03T02:58:32.057Z,9.443406
2023-03-03T02:59:32.096Z,9.443234
2023-03-03T03:00:32.027Z,9.442876
2023-03-03T03:01:32.289Z,9.443004
2023-03-03T03:02:32.021Z,9.443223
2023-03-03T03:03:32.008Z,9.443261
2023-03-03T03:04:32.131Z,9.443263
2023-03-03T03:05:32.006Z,9.443299
2023-03-03T03:06:32.023Z,9.443302
2023-03-03T03:07:32.122Z,9.443232
2023-03-03T03:08:31.986Z,9.443400
2023-03-03T03:09:31.992Z,9.443510
2023-03-03T03:10:31.997Z,9.443557
2023-03-03T03:11:32.024Z,9.443557
2023-03-03T03:12:31.963Z,9.443471
2023-03-03T03:13:32.010Z,9.443438
2023-03-03T03:14:31.997Z,9.443465
2023-03-03T03:15:32.005Z,9.443351
2023-03-03T03:16:32.051Z,9.443384
2023-03-03T03:17:31.955Z,9.443532
2023-03-03T03:18:31.955Z,9.443554
2023-03-03T03:19:31.947Z,9.443450
2023-03-03T03:20:31.922Z,9.443449
2023-03-03T03:21:31.913Z,9.443391
2023-03-03T03:22:31.966Z,9.443450
2023-03-03T03:23:31.934Z,9.443465
2023-03-03T03:24:31.881Z,9.443536
2023-03-03T03:25:31.938Z,9.443574
2023-03-03T03:26:31.884Z,9.443560
2023-03-03T03:27:31.882Z,9.443483
2023-03-03T03:28:31.898Z,9.443653
2023-03-03T03:29:31.904Z,9.443668
2023-03-03T03:30:31.954Z,9.443722
2023-03-03T03:31:31.895Z,9.443743
2023-03-03T03:32:31.905Z,9.443771
2023-03-03T03:33:31.870Z,9.443755
2023-03-03T03:34:31.853Z,9.443723
2023-03-03T03:35:31.918Z,9.443752
2023-03-03T03:36:32.574Z,9.443720
2023-03-03T03:37:32.509Z,9.443769
2023-03-03T03:38:31.868Z,9.443841
2023-03-03T03:39:32.629Z,9.443839
2023-03-03T03:40:31.789Z,9.443829
2023-03-03T03:41:31.798Z,9.443790
2023-03-03T03:42:31.785Z,9.443835
2023-03-03T03:43:32.548Z,9.443744
2023-03-03T03:44:31.769Z,9.443818
2023-03-03T03:45:31.754Z,9.443756
2023-03-03T03:46:31.762Z,9.443821
2023-03-03T03:47:31.741Z,9.443755
2023-03-03T03:48:31.769Z,9.443759
2023-03-03T03:49:31.767Z,9.443663
2023-03-03T03:50:31.757Z,9.443643
2023-03-03T03:51:31.727Z,9.443654
2023-03-03T03:52:31.712Z,9.443708
2023-03-03T03:53:31.727Z,9.443655
2023-03-03T03:54:31.714Z,9.443647
2023-03-03T03:55:31.716Z,9.443777
2023-03-03T03:56:31.897Z,9.443682
2023-03-03T03:57:31.752Z,9.443732
2023-03-03T03:58:31.669Z,9.443771
2023-03-03T03:59:31.669Z,9.443721
2023-03-03T04:00:31.665Z,9.443594
2023-03-03T04:01:31.669Z,9.443569
2023-03-03T04:02:31.784Z,9.443592
2023-03-03T04:03:31.767Z,9.443718
2023-03-03T04:04:31.656Z,9.443781
2023-03-03T04:05:31.670Z,9.443779
2023-03-03T04:06:31.628Z,9.443649
2023-03-03T04:07:31.646Z,9.443637
2023-03-03T04:08:31.649Z,9.443674
2023-03-03T04:09:31.740Z,9.443931
2023-03-03T04:10:31.625Z,9.444009
2023-03-03T04:11:31.642Z,9.443827
2023-03-03T04:12:31.602Z,9.443791
2023-03-03T04:13:32.551Z,9.443672
2023-03-03T04:14:31.588Z,9.443514
2023-03-03T04:15:31.658Z,9.443580
2023-03-03T04:16:31.596Z,9.443817
2023-03-03T04:17:31.598Z,9.443929
2023-03-03T04:18:31.571Z,9.443545
2023-03-03T04:19:32.601Z,9.443475
2023-03-03T04:20:31.602Z,9.443025
2023-03-03T04:21:31.575Z,9.443687
2023-03-03T04:22:31.717Z,9.443749
2023-03-03T04:23:31.556Z,9.443699
2023-03-03T04:24:31.541Z,9.443654
2023-03-03T04:25:32.073Z,9.443578
2023-03-03T04:26:31.543Z,9.443649
2023-03-03T04:27:31.635Z,9.443677
2023-03-03T04:28:32.041Z,9.443778
2023-03-03T04:29:31.521Z,9.443776
2023-03-03T04:30:31.494Z,9.443788
2023-03-03T04:31:31.505Z,9.443728
2023-03-03T04:32:32.059Z,9.443794
2023-03-03T04:33:31.515Z,9.444034
2023-03-03T04:34:32.610Z,9.443832
2023-03-03T04:35:31.488Z,9.443714
2023-03-03T04:36:31.512Z,9.443699
2023-03-03T04:37:31.492Z,9.443795
2023-03-03T04:38:31.503Z,9.443796
2023-03-03T04:39:31.441Z,9.443775
2023-03-03T04:40:31.439Z,9.443728
2023-03-03T04:41:31.451Z,9.443723
2023-03-03T04:42:31.483Z,9.443737
2023-03-03T04:43:31.452Z,9.443797
2023-03-03T04:44:31.488Z,9.443746
2023-03-03T04:45:32.053Z,9.443785
2023-03-03T04:46:31.660Z,9.443763
2023-03-03T04:47:31.400Z,9.443720
2023-03-03T04:48:31.398Z,9.443727
2023-03-03T04:49:32.072Z,9.443723
2023-03-03T04:50:31.378Z,9.443804
2023-03-03T04:51:31.415Z,9.443782
2023-03-03T04:52:31.373Z,9.443688
2023-03-03T04:53:32.027Z,9.443667
2023-03-03T04:54:31.403Z,9.443693
2023-03-03T04:55:31.342Z,9.443596
2023-03-03T04:56:31.363Z,9.443567
2023-03-03T04:57:31.335Z,9.443631
2023-03-03T04:58:31.346Z,9.443651
2023-03-03T04:59:31.362Z,9.443682
2023-03-03T05:00:31.390Z,9.443730
2023-03-03T05:01:31.331Z,9.443690
2023-03-03T05:02:31.340Z,9.443697
2023-03-03T05:03:31.302Z,9.443722
2023-03-03T05:04:31.353Z,9.443733
2023-03-03T05:05:31.313Z,9.443790
2023-03-03T05:06:31.309Z,9.443697
2023-03-03T05:07:31.287Z,9.443653
2023-03-03T05:08:31.949Z,9.443648
2023-03-03T05:09:31.276Z,9.443617
2023-03-03T05:10:33.684Z,9.443614
2023-03-03T05:11:31.334Z,9.443745
2023-03-03T05:12:31.287Z,9.443650
2023-03-03T05:13:32.057Z,9.443658
2023-03-03T05:14:31.248Z,9.443698
2023-03-03T05:15:31.227Z,9.443738
2023-03-03T05:16:31.272Z,9.443659
2023-03-03T05:17:31.252Z,9.443667
2023-03-03T05:18:31.234Z,9.443595
2023-03-03T05:19:31.211Z,9.443665
2023-03-03T05:20:31.221Z,9.443675
2023-03-03T05:21:32.015Z,9.443731
2023-03-03T05:22:31.197Z,9.443686
2023-03-03T05:23:31.210Z,9.443695
2023-03-03T05:24:31.198Z,9.443717
2023-03-03T05:25:31.206Z,9.443624
2023-03-03T05:26:31.169Z,9.443660
2023-03-03T05:27:31.174Z,9.443666
2023-03-03T05:28:31.181Z,9.443742
2023-03-03T05:29:31.140Z,9.443704
2023-03-03T05:30:31.136Z,9.443645
2023-03-03T05:31:31.191Z,9.443677
2023-03-03T05:32:31.144Z,9.443667
2023-03-03T05:33:31.126Z,9.443618
2023-03-03T05:34:31.141Z,9.443624
2023-03-03T05:35:31.125Z,9.443646
2023-03-03T05:36:31.083Z,9.443668
2023-03-03T05:37:31.092Z,9.443583
2023-03-03T05:38:31.134Z,9.443592
2023-03-03T05:39:31.071Z,9.443665
2023-03-03T05:40:32.064Z,9.443696
2023-03-03T05:41:31.205Z,9.443717
2023-03-03T05:42:31.113Z,9.443689
2023-03-03T05:43:31.101Z,9.443687
2023-03-03T05:44:31.096Z,9.443713
2023-03-03T05:45:31.039Z,9.443698
2023-03-03T05:46:31.108Z,9.443695
2023-03-03T05:47:32.006Z,9.443690
2023-03-03T05:48:31.038Z,9.443703
2023-03-03T05:49:31.038Z,9.443756
2023-03-03T05:50:31.000Z,9.443771
2023-03-03T05:51:31.167Z,9.443779
2023-03-03T05:52:31.019Z,9.443729
2023-03-03T05:53:30.992Z,9.443720
2023-03-03T05:54:31.013Z,9.443753
2023-03-03T05:55:31.143Z,9.443757
2023-03-03T05:56:31.015Z,9.443809
2023-03-03T05:57:30.997Z,9.443810
2023-03-03T05:58:31.070Z,9.443788
2023-03-03T05:59:30.970Z,9.443780
2023-03-03T06:00:30.991Z,9.443765
2023-03-03T06:01:30.967Z,9.443714
2023-03-03T06:02:30.941Z,9.443820
2023-03-03T06:03:31.528Z,9.443770
2023-03-03T06:04:31.329Z,9.443753
2023-03-03T06:05:30.896Z,9.443710
2023-03-03T06:06:30.913Z,9.443682
2023-03-03T06:07:31.020Z,9.443697
2023-03-03T06:08:30.956Z,9.443725
2023-03-03T06:09:30.908Z,9.443667
2023-03-03T06:10:30.909Z,9.443748
2023-03-03T06:11:30.897Z,9.443770
2023-03-03T06:12:30.894Z,9.443769
2023-03-03T06:13:31.033Z,9.443700
2023-03-03T06:14:30.880Z,9.443645
2023-03-03T06:15:31.713Z,9.443663
2023-03-03T06:16:34.011Z,9.443571
2023-03-03T06:17:32.568Z,9.443532
2023-03-03T06:18:30.823Z,9.443663
2023-03-03T06:19:30.900Z,9.443709
2023-03-03T06:20:31.541Z,9.443645
2023-03-03T06:21:30.898Z,9.443643
2023-03-03T06:22:30.833Z,9.443697
2023-03-03T06:23:30.810Z,9.443570
2023-03-03T06:24:31.784Z,9.443706
2023-03-03T06:25:31.701Z,9.443642
2023-03-03T06:26:30.797Z,9.443595
2023-03-03T06:27:30.797Z,9.443524
2023-03-03T06:28:30.804Z,9.443666
2023-03-03T06:29:30.787Z,9.443645
2023-03-03T06:30:30.759Z,9.443550
2023-03-03T06:31:31.090Z,9.443604
2023-03-03T06:32:30.845Z,9.443584
2023-03-03T06:33:30.781Z,9.443639
2023-03-03T06:34:30.774Z,9.443754
2023-03-03T06:35:30.790Z,9.443790
2023-03-03T06:36:30.743Z,9.443807
2023-03-03T06:37:30.798Z,9.443921
2023-03-03T06:38:30.744Z,9.443916
2023-03-03T06:39:31.433Z,9.443748
2023-03-03T06:40:30.722Z,9.443676
2023-03-03T06:41:30.682Z,9.443695
2023-03-03T06:43:03.133Z,9.443681
2023-03-03T06:44:03.093Z,9.443696
2023-03-03T06:45:03.094Z,9.443708
2023-03-03T06:46:03.162Z,9.443739
2023-03-03T06:47:03.117Z,9.443743
2023-03-03T06:48:03.116Z,9.443769
2023-03-03T06:49:04.115Z,9.443772
2023-03-03T06:50:03.082Z,9.443735
2023-03-03T06:51:03.384Z,9.443755
2023-03-03T06:51:30.645Z,9.443659
2023-03-03T06:52:30.653Z,9.443643
2023-03-03T06:53:30.631Z,9.443673
2023-03-03T06:55:04.080Z,9.443720
2023-03-03T06:55:30.602Z,9.443675
2023-03-03T06:56:30.629Z,9.443722
2023-03-03T06:57:30.652Z,9.443760
2023-03-03T06:59:03.697Z,9.443821
2023-03-03T06:59:30.569Z,9.443899
2023-03-03T07:00:31.399Z,9.443769
2023-03-03T07:01:31.210Z,9.443619
2023-03-03T07:02:31.207Z,9.443585
2023-03-03T07:03:30.573Z,9.443540
2023-03-03T07:04:30.610Z,9.443708
2023-03-03T07:05:30.566Z,9.443691
2023-03-03T07:06:30.559Z,9.443757
2023-03-03T07:07:30.735Z,9.443875
2023-03-03T07:08:30.556Z,9.443791
2023-03-03T07:09:30.534Z,9.443731
2023-03-03T07:10:30.637Z,9.443648
2023-03-03T07:11:30.507Z,9.443649
2023-03-03T07:12:30.545Z,9.443836
2023-03-03T07:13:30.527Z,9.443856
2023-03-03T07:14:30.530Z,9.443551
2023-03-03T07:15:30.510Z,9.443686
2023-03-03T07:16:30.567Z,9.443813
2023-03-03T07:17:30.497Z,9.443735
2023-03-03T07:18:30.498Z,9.443724
2023-03-03T07:19:30.512Z,9.443859
2023-03-03T07:20:30.490Z,9.443775
2023-03-03T07:21:31.161Z,9.443931
2023-03-03T07:22:30.480Z,9.443794
2023-03-03T07:23:30.594Z,9.443820
2023-03-03T07:24:30.467Z,9.443666
2023-03-03T07:25:30.484Z,9.443709
2023-03-03T07:26:30.471Z,9.443638
2023-03-03T07:27:30.426Z,9.443676
2023-03-03T07:28:30.447Z,9.443475
2023-03-03T07:29:30.453Z,9.443634
2023-03-03T07:30:30.422Z,9.443744
2023-03-03T07:31:30.475Z,9.443697
2023-03-03T07:32:30.416Z,9.443727
2023-03-03T07:33:30.401Z,9.443722
2023-03-03T07:34:30.421Z,9.443676
2023-03-03T07:35:30.583Z,9.443725
2023-03-03T07:36:31.244Z,9.443723
2023-03-03T07:37:30.402Z,9.443742
2023-03-03T07:38:30.382Z,9.443740
2023-03-03T07:39:30.365Z,9.443760
2023-03-03T07:40:30.373Z,9.443852
2023-03-03T07:41:30.332Z,9.443850
2023-03-03T07:42:30.355Z,9.443804
2023-03-03T07:43:30.382Z,9.443771
2023-03-03T07:44:30.338Z,9.443834
2023-03-03T07:45:30.365Z,9.443840
2023-03-03T07:46:30.419Z,9.443692
2023-03-03T07:47:30.353Z,9.443704
2023-03-03T07:48:30.382Z,9.443729
2023-03-03T07:49:30.307Z,9.443740
2023-03-03T07:50:30.336Z,9.443720
2023-03-03T07:51:30.270Z,9.443642
2023-03-03T07:52:30.268Z,9.443686
2023-03-03T07:53:30.271Z,9.443616
2023-03-03T07:54:30.284Z,9.443539
2023-03-03T07:55:30.251Z,9.443599
2023-03-03T07:56:30.383Z,9.443704
2023-03-03T07:57:30.260Z,9.443671
2023-03-03T07:58:30.296Z,9.443660
2023-03-03T07:59:30.245Z,9.443604
2023-03-03T08:00:30.340Z,9.443610
2023-03-03T08:01:30.224Z,9.443547
2023-03-03T08:02:30.245Z,9.443635
2023-03-03T08:03:30.203Z,9.443643
2023-03-03T08:04:30.382Z,9.443637
2023-03-03T08:05:30.227Z,9.443602
2023-03-03T08:06:30.187Z,9.443504
2023-03-03T08:07:30.206Z,9.443538
2023-03-03T08:08:30.182Z,9.443613
2023-03-03T08:09:30.167Z,9.443544
2023-03-03T08:10:30.231Z,9.443688
2023-03-03T08:11:36.583Z,9.443794
2023-03-03T08:12:32.950Z,9.443777
2023-03-03T08:13:31.136Z,9.443726
2023-03-03T08:14:30.257Z,9.443649
2023-03-03T08:15:30.254Z,9.443759
2023-03-03T08:16:30.118Z,9.443765
2023-03-03T08:17:30.149Z,9.443762
2023-03-03T08:18:30.697Z,9.443808
2023-03-03T08:19:30.134Z,9.443730
2023-03-03T08:20:30.092Z,9.443784
2023-03-03T08:21:30.149Z,9.443774
2023-03-03T08:22:30.135Z,9.443644
2023-03-03T08:23:30.109Z,9.443742
2023-03-03T08:24:30.687Z,9.443715
2023-03-03T08:25:30.102Z,9.443845
2023-03-03T08:26:30.057Z,9.443795
2023-03-03T08:27:30.052Z,9.443776
2023-03-03T08:28:30.126Z,9.443666
2023-03-03T08:29:30.695Z,9.443675
2023-03-03T08:30:30.684Z,9.443654
2023-03-03T08:31:40.807Z,9.443639
2023-03-03T08:32:32.148Z,9.443672
2023-03-03T08:33:30.023Z,9.443670
2023-03-03T08:34:30.050Z,9.443651
2023-03-03T08:35:30.060Z,9.443691
2023-03-03T08:36:29.998Z,9.443747
2023-03-03T08:37:30.001Z,9.443739
2023-03-03T08:38:30.980Z,9.443792
2023-03-03T08:39:30.709Z,9.443780
2023-03-03T08:40:30.012Z,9.443737
2023-03-03T08:41:30.017Z,9.443732
2023-03-03T08:42:29.967Z,9.443803
2023-03-03T08:43:29.949Z,9.443794
2023-03-03T08:44:29.974Z,9.443720
2023-03-03T08:45:29.941Z,9.443685
2023-03-03T08:46:29.982Z,9.443686
2023-03-03T08:47:29.937Z,9.443867
2023-03-03T08:48:29.927Z,9.443885
2023-03-03T08:49:29.974Z,9.443815
2023-03-03T08:50:29.946Z,9.443728
2023-03-03T08:51:29.924Z,9.443640
2023-03-03T08:52:29.903Z,9.443706
2023-03-03T08:53:29.911Z,9.443770
2023-03-03T08:54:29.927Z,9.443743
2023-03-03T08:55:29.882Z,9.443824
2023-03-03T08:56:29.886Z,9.443764
2023-03-03T08:57:29.903Z,9.443682
2023-03-03T08:58:35.243Z,9.443760
2023-03-03T08:59:32.132Z,9.443812
2023-03-03T09:00:29.854Z,9.443838
2023-03-03T09:01:29.935Z,9.443759
2023-03-03T09:02:29.852Z,9.443763
2023-03-03T09:03:29.826Z,9.443737
2023-03-03T09:04:29.859Z,9.443712
2023-03-03T09:05:29.836Z,9.443725
2023-03-03T09:06:29.853Z,9.443735
2023-03-03T09:07:29.812Z,9.443675
2023-03-03T09:08:30.379Z,9.443730
2023-03-03T09:09:30.688Z,9.443752
2023-03-03T09:10:29.800Z,9.443746
2023-03-03T09:11:29.787Z,9.443653
2023-03-03T09:12:29.844Z,9.443612
2023-03-03T09:13:29.792Z,9.443641
2023-03-03T09:14:29.766Z,9.443583
2023-03-03T09:15:29.763Z,9.443669
2023-03-03T09:16:29.807Z,9.443701
2023-03-03T09:17:29.753Z,9.443623
2023-03-03T09:18:29.801Z,9.443519
2023-03-03T09:19:29.778Z,9.443716
2023-03-03T09:20:29.729Z,9.443762
2023-03-03T09:21:29.727Z,9.443657
2023-03-03T09:22:29.744Z,9.443679
2023-03-03T09:23:29.751Z,9.443565
2023-03-03T09:24:29.737Z,9.443674
2023-03-03T09:25:29.797Z,9.443583
2023-03-03T09:26:29.717Z,9.443650
2023-03-03T09:27:29.692Z,9.443752
2023-03-03T09:28:29.698Z,9.443651
2023-03-03T09:29:29.685Z,9.443660
2023-03-03T09:30:29.682Z,9.443626
2023-03-03T09:31:29.753Z,9.443695
2023-03-03T09:32:29.667Z,9.443765
2023-03-03T09:33:29.645Z,9.443725
2023-03-03T09:34:29.663Z,9.443609
2023-03-03T09:35:29.881Z,9.443604
2023-03-03T09:36:29.663Z,9.443719
2023-03-03T09:37:29.682Z,9.443699
2023-03-03T09:38:29.618Z,9.443753
2023-03-03T09:39:29.715Z,9.443768
2023-03-03T09:40:29.601Z,9.443836
2023-03-03T09:41:29.603Z,9.443804
2023-03-03T09:42:29.628Z,9.443770
2023-03-03T09:43:29.584Z,9.443748
2023-03-03T09:44:29.601Z,9.443754
2023-03-03T09:45:29.589Z,9.443795
2023-03-03T09:46:29.659Z,9.443808
2023-03-03T09:47:29.568Z,9.443753
2023-03-03T09:48:29.567Z,9.443692
2023-03-03T09:49:29.559Z,9.443676
2023-03-03T09:50:29.582Z,9.443728
2023-03-03T09:51:29.570Z,9.443757
2023-03-03T09:52:29.554Z,9.443770
2023-03-03T09:53:29.524Z,9.443766
2023-03-03T09:54:29.522Z,9.443771
2023-03-03T09:55:29.506Z,9.443742
2023-03-03T09:56:29.504Z,9.443784
2023-03-03T09:57:29.526Z,9.443739
2023-03-03T09:58:29.491Z,9.443719
2023-03-03T09:59:29.541Z,9.443727
2023-03-03T10:00:29.601Z,9.443747
2023-03-03T10:01:29.469Z,9.443705
2023-03-03T10:02:29.479Z,9.443731
2023-03-03T10:03:29.570Z,9.443761
2023-03-03T10:04:29.541Z,9.443746
2023-03-03T10:05:29.460Z,9.443754
2023-03-03T10:06:29.465Z,9.443727
2023-03-03T10:07:29.463Z,9.443718
2023-03-03T10:08:31.544Z,9.443760
2023-03-03T10:09:30.472Z,9.443704
2023-03-03T10:10:29.436Z,9.443731
2023-03-03T10:11:29.423Z,9.443723
2023-03-03T10:12:29.420Z,9.443750
2023-03-03T10:13:29.453Z,9.443764
2023-03-03T10:14:29.413Z,9.443740
2023-03-03T10:15:29.394Z,9.443753
2023-03-03T10:16:29.442Z,9.443745
2023-03-03T10:17:29.388Z,9.443771
2023-03-03T10:18:32.149Z,9.443770
2023-03-03T10:19:29.380Z,9.443738
2023-03-03T10:20:34.776Z,9.443763
2023-03-03T10:21:31.353Z,9.443788
2023-03-03T10:22:29.438Z,9.443786
2023-03-03T10:23:29.347Z,9.443722
2023-03-03T10:24:30.142Z,9.443789
2023-03-03T10:25:29.354Z,9.443771
2023-03-03T10:26:43.968Z,9.443667
2023-03-03T10:27:31.433Z,9.443704
2023-03-03T10:28:29.303Z,9.443685
2023-03-03T10:29:30.863Z,9.443795
2023-03-03T10:30:39.980Z,9.443744
2023-03-03T10:31:31.373Z,9.443630
2023-03-03T10:32:29.444Z,9.443760
2023-03-03T10:33:29.454Z,9.443715
2023-03-03T10:34:29.331Z,9.443774
2023-03-03T10:35:29.310Z,9.443851
2023-03-03T10:36:30.590Z,9.443819
2023-03-03T10:37:30.285Z,9.443725
2023-03-03T10:38:29.252Z,9.443841
2023-03-03T10:39:29.261Z,9.443804
2023-03-03T10:40:29.268Z,9.443745
2023-03-03T10:41:30.265Z,9.443723
2023-03-03T10:42:29.221Z,9.443728
2023-03-03T10:43:32.206Z,9.443824
2023-03-03T10:44:30.210Z,9.443746
2023-03-03T10:45:29.348Z,9.443800
2023-03-03T10:46:29.197Z,9.443786
2023-03-03T10:47:29.194Z,9.443698
2023-03-03T10:48:29.210Z,9.443775
2023-03-03T10:49:29.186Z,9.443695
2023-03-03T10:50:29.171Z,9.443781
2023-03-03T10:51:29.199Z,9.443792
2023-03-03T10:52:29.158Z,9.443715
2023-03-03T10:53:29.177Z,9.443629
2023-03-03T10:54:29.152Z,9.443688
2023-03-03T10:55:29.154Z,9.443704
2023-03-03T10:56:29.146Z,9.443841
2023-03-03T10:57:29.133Z,9.443868
2023-03-03T10:58:29.130Z,9.443667
2023-03-03T10:59:29.223Z,9.443666
2023-03-03T11:00:29.124Z,9.443725
2023-03-03T11:01:29.174Z,9.443745
2023-03-03T11:02:29.097Z,9.443665
2023-03-03T11:03:29.132Z,9.443671
2023-03-03T11:04:29.152Z,9.443641
2023-03-03T11:05:29.078Z,9.443629
2023-03-03T11:06:29.064Z,9.443635
2023-03-03T11:07:29.083Z,9.443607
2023-03-03T11:08:29.057Z,9.443576
2023-03-03T11:09:29.051Z,9.443615
2023-03-03T11:10:29.100Z,9.443694
2023-03-03T11:11:29.041Z,9.443783
2023-03-03T11:12:29.073Z,9.443777
2023-03-03T11:13:29.084Z,9.443788
2023-03-03T11:14:29.080Z,9.443717
2023-03-03T11:15:29.050Z,9.443689
2023-03-03T11:16:29.295Z,9.443642
2023-03-03T11:17:29.009Z,9.443690
2023-03-03T11:18:29.005Z,9.443727
2023-03-03T11:19:28.998Z,9.443585
2023-03-03T11:20:28.980Z,9.443679
2023-03-03T11:21:29.017Z,9.443721
2023-03-03T11:22:28.992Z,9.443690
2023-03-03T11:23:28.990Z,9.443668
2023-03-03T11:24:28.978Z,9.443730
2023-03-03T11:25:28.952Z,9.443764
2023-03-03T11:26:29.093Z,9.443627
2023-03-03T11:27:28.935Z,9.443617
2023-03-03T11:28:28.931Z,9.443810
2023-03-03T11:29:28.943Z,9.443754
2023-03-03T11:30:28.919Z,9.443740
2023-03-03T11:31:31.725Z,9.443784
2023-03-03T11:32:30.000Z,9.443728
2023-03-03T11:33:28.918Z,9.443712
2023-03-03T11:34:28.886Z,9.443748
2023-03-03T11:35:28.940Z,9.443717
2023-03-03T11:36:28.900Z,9.443691
2023-03-03T11:37:28.916Z,9.443677
2023-03-03T11:38:28.889Z,9.443705
2023-03-03T11:39:28.861Z,9.443666
2023-03-03T11:40:28.862Z,9.443614
2023-03-03T11:41:28.900Z,9.443662
2023-03-03T11:42:28.873Z,9.443636
2023-03-03T11:43:36.541Z,9.443671
2023-03-03T11:44:30.840Z,9.443618